createdAt,value
2019-03-23T00:00:18.972Z,71.53
2019-03-23T00:02:48.065Z,73.23
2019-03-23T00:05:17.062Z,79.33
2019-03-23T00:07:46.148Z,70.73
2019-03-23T00:10:15.128Z,79.77
2019-03-23T00:12:44.171Z,79.87
2019-03-23T00:15:14.003Z,70.57
2019-03-23T00:17:44.631Z,79.80
2019-03-23T00:20:13.793Z,79.17
2019-03-23T00:22:42.841Z,74.83
2019-03-23T00:25:11.822Z,77.97
2019-03-23T00:27:40.908Z,73.53
2019-03-23T00:30:10.268Z,77.17
2019-03-23T00:32:39.327Z,78.33
2019-03-23T00:35:08.320Z,77.37
2019-03-23T00:37:37.316Z,75.50
2019-03-23T00:40:06.644Z,74.80
2019-03-23T00:42:35.774Z,82.77
2019-03-23T00:45:05.492Z,80.13
2019-03-23T00:47:34.476Z,75.13
2019-03-23T00:50:03.559Z,78.97
2019-03-23T00:52:32.560Z,72.00
2019-03-23T00:55:01.694Z,77.80
2019-03-23T00:57:30.817Z,80.53
2019-03-23T00:59:59.788Z,80.33
2019-03-23T01:02:28.870Z,74.80
2019-03-23T01:04:57.972Z,71.20
2019-03-23T01:07:27.047Z,76.33
2019-03-23T01:09:56.077Z,64.47
2019-03-23T01:12:25.138Z,75.47
2019-03-23T01:14:55.726Z,75.20
2019-03-23T01:17:24.800Z,76.73
2019-03-23T01:19:53.781Z,78.17
2019-03-23T01:22:22.849Z,68.23
2019-03-23T01:24:51.890Z,71.83
2019-03-23T01:27:20.882Z,82.10
2019-03-23T01:29:49.937Z,73.30
2019-03-23T01:32:19.021Z,79.80
2019-03-23T01:34:48.085Z,72.53
2019-03-23T01:37:17.155Z,64.33
2019-03-23T01:39:46.152Z,76.20
2019-03-23T01:42:15.134Z,69.30
2019-03-23T01:44:44.203Z,77.97
2019-03-23T01:47:15.023Z,69.83
2019-03-23T01:49:44.041Z,67.53
2019-03-23T01:52:13.139Z,76.63
2019-03-23T01:54:42.179Z,67.97
2019-03-23T01:57:11.226Z,64.97
2019-03-23T01:59:40.317Z,75.37
2019-03-23T02:02:12.169Z,72.53
2019-03-23T02:04:41.190Z,79.47
2019-03-23T02:07:13.980Z,67.30
2019-03-23T02:09:40.955Z,66.27
2019-03-23T02:12:09.998Z,66.67
2019-03-23T02:14:39.081Z,63.90
2019-03-23T02:17:08.052Z,78.63
2019-03-23T02:19:37.063Z,66.33
2019-03-23T02:22:06.105Z,69.50
2019-03-23T02:24:35.162Z,64.97
2019-03-23T02:27:04.145Z,67.73
2019-03-23T02:29:33.210Z,67.10
2019-03-23T02:32:02.281Z,64.27
2019-03-23T02:34:31.362Z,63.93
2019-03-23T02:37:03.584Z,68.07
2019-03-23T02:39:32.730Z,75.23
2019-03-23T02:42:01.717Z,81.43
2019-03-23T02:44:30.780Z,71.20
2019-03-23T02:46:59.825Z,75.33
2019-03-23T02:49:28.918Z,75.03
2019-03-23T02:51:57.970Z,58.13
2019-03-23T02:54:27.028Z,71.07
2019-03-23T02:56:55.987Z,76.30
2019-03-23T02:59:25.109Z,61.30
2019-03-23T03:01:54.156Z,61.87
2019-03-23T03:04:23.216Z,68.30
2019-03-23T03:06:52.309Z,73.70
2019-03-23T03:09:21.369Z,67.90
2019-03-23T03:11:50.410Z,72.13
2019-03-23T03:14:19.481Z,69.73
2019-03-23T03:16:48.517Z,64.37
2019-03-23T03:19:17.512Z,72.83
2019-03-23T03:21:46.601Z,71.83
2019-03-23T03:24:15.579Z,72.63
2019-03-23T03:26:44.654Z,72.83
2019-03-23T03:29:13.643Z,71.70
2019-03-23T03:31:42.600Z,70.80
2019-03-23T03:34:11.691Z,76.37
2019-03-23T03:36:40.738Z,78.33
2019-03-23T03:39:09.736Z,60.40
2019-03-23T03:41:38.743Z,66.63
2019-03-23T03:44:07.774Z,74.37
2019-03-23T03:46:36.785Z,66.30
2019-03-23T03:49:12.137Z,73.37
2019-03-23T03:51:36.556Z,61.13
2019-03-23T03:54:05.527Z,65.67
2019-03-23T03:56:34.619Z,78.33
2019-03-23T03:59:03.584Z,68.83
2019-03-23T04:01:32.647Z,70.23
2019-03-23T04:04:01.641Z,76.07
2019-03-23T04:06:30.628Z,73.87
2019-03-23T04:08:59.652Z,67.87
2019-03-23T04:11:28.657Z,69.10
2019-03-23T04:13:57.713Z,67.50
2019-03-23T04:16:26.771Z,70.30
2019-03-23T04:18:55.940Z,76.13
2019-03-23T04:21:25.025Z,67.27
2019-03-23T04:23:54.081Z,72.33
2019-03-23T04:26:23.091Z,73.43
2019-03-23T04:28:52.088Z,75.10
2019-03-23T04:31:21.146Z,74.57
2019-03-23T04:33:50.196Z,88.07
2019-03-23T04:36:19.297Z,81.30
2019-03-23T04:38:48.323Z,76.73
2019-03-23T04:41:18.142Z,84.37
2019-03-23T04:43:47.213Z,82.07
2019-03-23T04:46:17.480Z,86.60
2019-03-23T04:48:46.599Z,86.50
2019-03-23T04:51:15.617Z,81.30
2019-03-23T04:53:44.637Z,90.70
2019-03-23T04:56:16.716Z,73.00
2019-03-23T04:58:45.701Z,92.10
2019-03-23T05:01:14.782Z,81.03
2019-03-23T05:03:43.886Z,86.87
2019-03-23T05:06:14.718Z,81.13
2019-03-23T05:08:43.847Z,89.33
2019-03-23T05:11:12.860Z,84.30
2019-03-23T05:13:41.839Z,98.40
2019-03-23T05:16:10.843Z,96.37
2019-03-23T05:18:39.816Z,94.30
2019-03-23T05:21:08.863Z,87.70
2019-03-23T05:23:39.692Z,88.07
2019-03-23T05:26:08.662Z,92.73
2019-03-23T05:28:37.673Z,96.13
2019-03-23T05:31:07.201Z,81.33
2019-03-23T05:33:38.371Z,80.43
2019-03-23T05:36:07.377Z,79.73
2019-03-23T05:38:44.461Z,79.83
2019-03-23T05:41:07.647Z,76.73
2019-03-23T05:43:36.654Z,87.90
2019-03-23T05:46:05.705Z,90.47
2019-03-23T05:48:36.394Z,77.83
2019-03-23T05:51:09.005Z,84.10
2019-03-23T05:53:41.449Z,80.50
2019-03-23T05:56:10.547Z,81.53
2019-03-23T05:58:39.567Z,75.07
2019-03-23T06:01:08.560Z,82.33
2019-03-23T06:03:37.566Z,85.77
2019-03-23T06:06:06.649Z,84.97
2019-03-23T06:08:35.690Z,74.90
2019-03-23T06:11:04.661Z,89.43
2019-03-23T06:13:33.679Z,85.57
2019-03-23T06:16:02.755Z,85.57
2019-03-23T06:18:31.773Z,88.73
2019-03-23T06:21:00.749Z,90.23
2019-03-23T06:23:29.738Z,93.40
2019-03-23T06:25:58.765Z,93.07
2019-03-23T06:28:27.821Z,99.43
2019-03-23T06:30:58.613Z,106.57
2019-03-23T06:33:28.917Z,87.83
2019-03-23T06:35:58.114Z,84.80
2019-03-23T06:38:32.470Z,75.20
2019-03-23T06:41:01.507Z,87.17
2019-03-23T06:43:34.337Z,76.90
2019-03-23T06:46:07.483Z,78.60
2019-03-23T06:48:37.792Z,79.80
2019-03-23T06:51:15.233Z,69.43
2019-03-23T06:53:47.163Z,82.47
2019-03-23T06:56:18.310Z,85.73
2019-03-23T06:58:47.319Z,83.90
2019-03-23T07:01:16.370Z,75.80
2019-03-23T07:03:45.379Z,93.87
2019-03-23T07:06:14.449Z,86.17
2019-03-23T07:08:43.495Z,84.90
2019-03-23T07:11:12.531Z,96.53
2019-03-23T07:13:41.655Z,84.97
2019-03-23T07:16:10.660Z,81.97
2019-03-23T07:18:39.653Z,83.20
2019-03-23T07:21:08.756Z,88.40
2019-03-23T07:23:37.746Z,77.43
2019-03-23T07:26:07.177Z,71.40
2019-03-23T07:28:36.226Z,79.10
2019-03-23T07:31:05.270Z,73.60
2019-03-23T07:33:34.297Z,76.63
2019-03-23T07:36:03.356Z,87.97
2019-03-23T07:38:32.403Z,76.30
2019-03-23T07:41:04.414Z,82.47
2019-03-23T07:43:33.594Z,80.00
2019-03-23T07:46:02.635Z,77.00
2019-03-23T07:48:31.945Z,82.70
2019-03-23T07:51:04.026Z,84.10
2019-03-23T07:53:33.130Z,79.23
2019-03-23T07:56:02.187Z,76.10
2019-03-23T07:58:31.192Z,86.83
2019-03-23T08:01:00.282Z,81.53
2019-03-23T08:03:29.337Z,85.40
2019-03-23T08:05:58.395Z,75.90
2019-03-23T08:08:27.399Z,77.10
2019-03-23T08:10:56.469Z,73.43
2019-03-23T08:13:25.535Z,79.70
2019-03-23T08:15:57.693Z,88.80
2019-03-23T08:18:28.278Z,83.17
2019-03-23T08:20:57.291Z,76.87
2019-03-23T08:23:26.351Z,80.80
2019-03-23T08:25:56.604Z,79.73
2019-03-23T08:28:25.606Z,81.53
2019-03-23T08:31:05.437Z,81.53
2019-03-23T08:33:34.459Z,72.47
2019-03-23T08:36:04.002Z,71.60
2019-03-23T08:38:33.044Z,68.17
2019-03-23T08:41:02.170Z,71.97
2019-03-23T08:43:31.238Z,82.30
2019-03-23T08:46:00.273Z,70.63
2019-03-23T08:48:30.733Z,74.20
2019-03-23T08:50:59.843Z,78.50
2019-03-23T08:53:29.004Z,74.40
2019-03-23T08:55:58.145Z,72.43
2019-03-23T08:58:32.266Z,66.80
2019-03-23T09:01:01.666Z,64.93
2019-03-23T09:03:31.912Z,74.07
2019-03-23T09:06:00.957Z,70.03
2019-03-23T09:08:29.980Z,80.70
2019-03-23T09:10:59.045Z,70.43
2019-03-23T09:13:28.308Z,67.73
2019-03-23T09:16:00.676Z,72.90
2019-03-23T09:18:29.681Z,83.93
2019-03-23T09:20:59.364Z,74.57
2019-03-23T09:23:30.190Z,70.53
2019-03-23T09:25:59.271Z,74.77
2019-03-23T09:28:28.618Z,81.23
2019-03-23T09:31:01.340Z,76.03
2019-03-23T09:33:30.432Z,71.00
2019-03-23T09:36:02.914Z,76.83
2019-03-23T09:38:31.983Z,64.83
2019-03-23T09:41:01.061Z,74.00
2019-03-23T09:43:30.211Z,69.33
2019-03-23T09:45:59.320Z,78.13
2019-03-23T09:48:28.314Z,66.57
2019-03-23T09:50:57.317Z,70.67
2019-03-23T09:53:26.308Z,80.43
2019-03-23T09:55:55.309Z,75.70
2019-03-23T09:58:24.322Z,69.47
2019-03-23T10:00:53.355Z,70.23
2019-03-23T10:03:22.328Z,65.83
2019-03-23T10:05:51.479Z,82.63
2019-03-23T10:08:20.551Z,61.63
2019-03-23T10:10:49.656Z,75.50
2019-03-23T10:13:18.735Z,66.80
2019-03-23T10:15:47.744Z,69.50
2019-03-23T10:18:16.773Z,65.63
2019-03-23T10:20:45.906Z,74.13
2019-03-23T10:23:15.030Z,73.60
2019-03-23T10:25:44.129Z,76.67
2019-03-23T10:28:13.761Z,75.97
2019-03-23T10:30:42.824Z,65.27
2019-03-23T10:33:11.844Z,68.73
2019-03-23T10:35:40.867Z,71.43
2019-03-23T10:38:09.936Z,74.53
2019-03-23T10:40:38.983Z,71.50
2019-03-23T10:43:07.968Z,69.03
2019-03-23T10:45:44.084Z,71.80
2019-03-23T10:48:07.956Z,75.87
2019-03-23T10:50:37.047Z,71.50
2019-03-23T10:53:06.223Z,66.93
2019-03-23T10:55:35.292Z,72.83
2019-03-23T10:58:04.454Z,58.50
2019-03-23T11:00:33.476Z,68.63
2019-03-23T11:03:06.123Z,69.47
2019-03-23T11:05:35.349Z,68.07
2019-03-23T11:08:04.551Z,64.47
2019-03-23T11:10:41.526Z,60.40
2019-03-23T11:13:04.452Z,72.07
2019-03-23T11:15:33.533Z,70.10
2019-03-23T11:18:02.655Z,72.93
2019-03-23T11:20:31.646Z,67.83
2019-03-23T11:23:00.659Z,62.30
2019-03-23T11:25:29.692Z,65.03
2019-03-23T11:27:58.737Z,64.00
2019-03-23T11:30:27.714Z,56.00
2019-03-23T11:32:56.799Z,68.80
2019-03-23T11:35:25.790Z,70.27
2019-03-23T11:37:54.992Z,67.73
2019-03-23T11:40:24.180Z,62.33
2019-03-23T11:42:53.211Z,64.10
2019-03-23T11:45:22.220Z,62.43
2019-03-23T11:47:51.311Z,59.20
2019-03-23T11:50:23.391Z,65.93
2019-03-23T11:52:52.469Z,63.17
2019-03-23T11:55:21.570Z,62.70
2019-03-23T11:57:53.144Z,64.93
2019-03-23T12:00:22.128Z,69.20
2019-03-23T12:02:51.218Z,66.47
2019-03-23T12:05:20.278Z,70.70
2019-03-23T12:07:51.536Z,63.97
2019-03-23T12:10:20.616Z,66.73
2019-03-23T12:12:49.700Z,68.23
2019-03-23T12:15:18.709Z,72.53
2019-03-23T12:17:47.738Z,68.00
2019-03-23T12:20:16.786Z,65.57
2019-03-23T12:22:45.862Z,67.90
2019-03-23T12:25:15.030Z,67.73
2019-03-23T12:27:44.122Z,70.93
2019-03-23T12:30:14.838Z,59.57
2019-03-23T12:32:44.000Z,60.47
2019-03-23T12:35:13.391Z,60.97
2019-03-23T12:37:42.660Z,53.10
2019-03-23T12:40:11.853Z,58.93
2019-03-23T12:42:41.080Z,49.00
2019-03-23T12:45:10.859Z,59.80
2019-03-23T12:47:39.869Z,45.70
2019-03-23T12:50:09.714Z,54.63
2019-03-23T12:52:38.743Z,53.40
2019-03-23T12:55:09.661Z,54.37
2019-03-23T12:57:38.683Z,53.73
2019-03-23T13:00:07.858Z,53.87
2019-03-23T13:02:37.057Z,41.17
2019-03-23T13:05:06.508Z,41.13
2019-03-23T13:07:35.526Z,37.87
2019-03-23T13:10:05.421Z,31.83
2019-03-23T13:12:37.044Z,30.10
2019-03-23T13:15:06.657Z,32.90
2019-03-23T13:17:36.297Z,28.90
2019-03-23T13:20:08.585Z,24.63
2019-03-23T13:22:36.787Z,32.00
2019-03-23T13:25:06.359Z,26.27
2019-03-23T13:27:35.496Z,26.37
2019-03-23T13:30:05.041Z,26.50
2019-03-23T13:32:34.186Z,21.40
2019-03-23T13:35:03.272Z,23.63
2019-03-23T13:37:32.435Z,18.10
2019-03-23T13:40:03.672Z,18.20
2019-03-23T13:42:34.150Z,16.83
2019-03-23T13:45:04.793Z,18.53
2019-03-23T13:47:33.834Z,16.23
2019-03-23T13:50:03.213Z,15.67
2019-03-23T13:52:33.537Z,11.83
2019-03-23T13:55:03.105Z,15.30
2019-03-23T13:57:32.498Z,10.57
2019-03-23T14:00:02.074Z,13.07
2019-03-23T14:02:31.173Z,7.97
2019-03-23T14:05:00.379Z,7.53
2019-03-23T14:07:29.542Z,12.77
2019-03-23T14:09:58.692Z,9.30
2019-03-23T14:12:27.952Z,7.07
2019-03-23T14:14:57.131Z,16.67
2019-03-23T14:17:26.582Z,8.77
2019-03-23T14:19:55.673Z,7.23
2019-03-23T14:22:24.759Z,6.97
2019-03-23T14:24:53.848Z,7.30
2019-03-23T14:27:24.257Z,10.47
2019-03-23T14:29:53.272Z,12.67
2019-03-23T14:32:22.321Z,7.00
2019-03-23T14:34:51.351Z,8.80
2019-03-23T14:37:20.457Z,11.80
2019-03-23T14:39:49.517Z,8.97
2019-03-23T14:42:18.619Z,10.50
2019-03-23T14:44:47.696Z,9.40
2019-03-23T14:47:16.756Z,11.87
2019-03-23T14:49:45.855Z,8.27
2019-03-23T14:52:15.023Z,5.90
2019-03-23T14:54:44.060Z,6.37
2019-03-23T14:57:13.125Z,7.67
2019-03-23T14:59:42.196Z,8.83
2019-03-23T15:02:11.286Z,5.23
2019-03-23T15:04:40.304Z,10.00
2019-03-23T15:07:09.479Z,8.40
2019-03-23T15:09:38.503Z,12.80
2019-03-23T15:12:14.697Z,7.63
2019-03-23T15:14:38.543Z,9.20
2019-03-23T15:17:07.584Z,13.47
2019-03-23T15:19:37.176Z,9.23
2019-03-23T15:22:06.300Z,9.00
2019-03-23T15:24:35.535Z,7.23
2019-03-23T15:27:04.592Z,10.60
2019-03-23T15:29:33.711Z,7.83
2019-03-23T15:32:02.829Z,10.10
2019-03-23T15:34:31.833Z,5.63
2019-03-23T15:37:00.968Z,11.27
2019-03-23T15:39:29.988Z,7.87
2019-03-23T15:42:02.044Z,6.27
2019-03-23T15:44:31.156Z,13.90
2019-03-23T15:47:00.252Z,10.47
2019-03-23T15:49:29.370Z,10.93
2019-03-23T15:51:58.370Z,12.47
2019-03-23T15:54:27.402Z,11.17
2019-03-23T15:56:56.646Z,7.00
2019-03-23T15:59:25.737Z,11.30
2019-03-23T16:01:54.849Z,11.03
2019-03-23T16:04:23.956Z,11.83
2019-03-23T16:06:53.024Z,14.57
2019-03-23T16:09:22.146Z,13.60
2019-03-23T16:11:51.167Z,13.60
2019-03-23T16:14:20.226Z,14.03
2019-03-23T16:16:52.365Z,11.93
2019-03-23T16:19:21.438Z,9.60
2019-03-23T16:21:50.509Z,13.53
2019-03-23T16:24:19.500Z,8.27
2019-03-23T16:26:48.668Z,10.27
2019-03-23T16:29:17.772Z,9.73
2019-03-23T16:31:46.936Z,9.17
2019-03-23T16:34:16.081Z,8.90
2019-03-23T16:36:45.142Z,11.87
2019-03-23T16:39:14.328Z,12.27
2019-03-23T16:41:43.400Z,9.97
2019-03-23T16:44:15.468Z,6.23
2019-03-23T16:46:44.528Z,9.57
2019-03-23T16:49:14.132Z,10.30
2019-03-23T16:51:43.153Z,16.80
2019-03-23T16:54:12.251Z,8.33
2019-03-23T16:56:44.037Z,8.73
2019-03-23T16:59:13.078Z,7.30
2019-03-23T17:01:42.111Z,6.97
2019-03-23T17:04:11.157Z,10.43
2019-03-23T17:06:46.225Z,11.07
2019-03-23T17:09:13.287Z,9.37
2019-03-23T17:11:42.404Z,8.83
2019-03-23T17:14:11.394Z,15.47
2019-03-23T17:16:40.443Z,16.40
2019-03-23T17:19:09.487Z,12.20
2019-03-23T17:21:38.691Z,18.33
2019-03-23T17:24:07.698Z,12.67
2019-03-23T17:26:36.693Z,16.30
2019-03-23T17:29:09.657Z,12.80
2019-03-23T17:31:38.424Z,16.87
2019-03-23T17:34:07.707Z,19.83
2019-03-23T17:36:36.796Z,16.70
2019-03-23T17:39:06.475Z,13.97
2019-03-23T17:41:35.617Z,17.13
2019-03-23T17:44:07.875Z,9.93
2019-03-23T17:46:37.184Z,12.70
2019-03-23T17:49:06.302Z,17.73
2019-03-23T17:51:35.463Z,11.63
2019-03-23T17:54:04.504Z,15.80
2019-03-23T17:56:33.591Z,23.67
2019-03-23T17:59:02.748Z,20.87
2019-03-23T18:01:31.833Z,19.40
2019-03-23T18:04:00.833Z,13.37
2019-03-23T18:06:29.837Z,22.13
2019-03-23T18:08:58.910Z,20.57
2019-03-23T18:11:27.920Z,16.47
2019-03-23T18:13:57.077Z,16.83
2019-03-23T18:16:26.080Z,12.57
2019-03-23T18:18:55.127Z,11.93
2019-03-23T18:21:24.260Z,15.30
2019-03-23T18:23:53.332Z,9.97
2019-03-23T18:26:22.390Z,9.30
2019-03-23T18:28:51.457Z,13.20
2019-03-23T18:31:20.541Z,16.27
2019-03-23T18:33:49.645Z,11.43
2019-03-23T18:36:20.015Z,23.33
2019-03-23T18:38:49.035Z,15.60
2019-03-23T18:41:18.114Z,8.63
2019-03-23T18:43:47.291Z,13.23
2019-03-23T18:46:16.343Z,12.60
2019-03-23T18:48:45.346Z,11.97
2019-03-23T18:51:14.673Z,9.60
2019-03-23T18:53:43.750Z,12.03
2019-03-23T18:56:12.760Z,16.03
2019-03-23T18:58:41.820Z,15.23
2019-03-23T19:01:10.905Z,12.60
2019-03-23T19:03:40.476Z,15.30
2019-03-23T19:06:09.664Z,13.13
2019-03-23T19:08:38.920Z,15.13
2019-03-23T19:11:08.065Z,6.73
2019-03-23T19:13:38.157Z,14.30
2019-03-23T19:16:07.415Z,12.03
2019-03-23T19:18:36.550Z,14.37
2019-03-23T19:21:05.921Z,14.23
2019-03-23T19:23:34.974Z,18.57
2019-03-23T19:26:04.241Z,13.20
2019-03-23T19:28:33.250Z,20.17
2019-03-23T19:31:02.293Z,14.67
2019-03-23T19:33:31.383Z,16.60
2019-03-23T19:36:00.476Z,15.63
2019-03-23T19:38:29.521Z,15.20
2019-03-23T19:40:59.138Z,17.60
2019-03-23T19:43:28.210Z,23.37
2019-03-23T19:45:57.311Z,40.07
2019-03-23T19:48:27.526Z,23.73
2019-03-23T19:50:56.706Z,15.57
2019-03-23T19:53:25.745Z,17.67
2019-03-23T19:55:54.765Z,24.23
2019-03-23T19:58:23.880Z,28.53
2019-03-23T20:00:53.018Z,16.30
2019-03-23T20:03:23.559Z,22.17
2019-03-23T20:05:53.802Z,30.33
2019-03-23T20:08:22.934Z,23.10
2019-03-23T20:11:01.201Z,20.03
2019-03-23T20:13:30.490Z,17.93
2019-03-23T20:15:59.700Z,19.87
2019-03-23T20:18:29.060Z,11.83
2019-03-23T20:20:58.246Z,13.60
2019-03-23T20:23:27.456Z,17.27
2019-03-23T20:25:56.614Z,20.03
2019-03-23T20:28:25.743Z,12.83
2019-03-23T20:30:54.918Z,26.00
2019-03-23T20:33:24.152Z,12.53
2019-03-23T20:35:53.337Z,20.57
2019-03-23T20:38:22.752Z,20.73
2019-03-23T20:40:51.902Z,13.50
2019-03-23T20:43:21.100Z,16.60
2019-03-23T20:45:50.251Z,15.37
2019-03-23T20:48:19.339Z,22.17
2019-03-23T20:50:49.811Z,24.10
2019-03-23T20:53:19.226Z,22.77
2019-03-23T20:55:48.348Z,18.60
2019-03-23T20:58:17.535Z,14.10
2019-03-23T21:00:46.622Z,23.17
2019-03-23T21:03:16.134Z,27.37
2019-03-23T21:05:45.279Z,21.70
2019-03-23T21:08:33.229Z,16.37
2019-03-23T21:11:02.327Z,20.57
2019-03-23T21:13:31.425Z,36.67
2019-03-23T21:16:00.561Z,22.43
2019-03-23T21:18:29.708Z,21.70
2019-03-23T21:20:58.872Z,18.20
2019-03-23T21:23:28.009Z,21.13
2019-03-23T21:25:57.309Z,13.87
2019-03-23T21:28:26.415Z,14.97
2019-03-23T21:30:55.550Z,17.13
2019-03-23T21:33:24.633Z,21.90
2019-03-23T21:35:53.705Z,26.53
2019-03-23T21:38:22.736Z,21.80
2019-03-23T21:40:51.823Z,25.27
2019-03-23T21:43:20.907Z,27.23
2019-03-23T21:45:49.999Z,16.70
2019-03-23T21:48:19.112Z,15.10
2019-03-23T21:50:48.174Z,17.83
2019-03-23T21:53:17.247Z,23.90
2019-03-23T21:55:46.320Z,16.73
2019-03-23T21:58:15.393Z,21.43
2019-03-23T22:00:44.520Z,26.73
2019-03-23T22:03:13.522Z,19.23
2019-03-23T22:05:42.658Z,19.00
2019-03-23T22:08:11.651Z,24.93
2019-03-23T22:10:40.723Z,23.17
2019-03-23T22:13:09.803Z,23.20
2019-03-23T22:15:38.800Z,15.33
2019-03-23T22:18:07.894Z,19.37
2019-03-23T22:20:36.897Z,18.37
2019-03-23T22:23:05.930Z,25.63
2019-03-23T22:25:35.036Z,16.57
2019-03-23T22:28:04.177Z,16.43
2019-03-23T22:30:33.315Z,27.17
2019-03-23T22:33:02.532Z,28.10
2019-03-23T22:35:31.527Z,22.43
2019-03-23T22:38:00.736Z,27.13
2019-03-23T22:40:29.779Z,16.80
2019-03-23T22:42:58.786Z,21.07
2019-03-23T22:45:27.964Z,19.23
2019-03-23T22:47:58.980Z,18.53
2019-03-23T22:50:27.758Z,20.47
2019-03-23T22:52:56.778Z,20.27
2019-03-23T22:55:25.858Z,13.80
2019-03-23T22:57:54.904Z,19.37
2019-03-23T23:00:44.270Z,28.17
2019-03-23T23:03:13.964Z,13.80
2019-03-23T23:05:42.975Z,23.13
2019-03-23T23:08:11.986Z,29.00
2019-03-23T23:10:41.055Z,26.13
2019-03-23T23:13:10.105Z,18.53
2019-03-23T23:15:39.106Z,29.47
2019-03-23T23:18:08.129Z,17.97
2019-03-23T23:20:37.171Z,16.20
2019-03-23T23:23:06.201Z,17.13
2019-03-23T23:25:35.280Z,15.37
2019-03-23T23:28:04.355Z,19.53
2019-03-23T23:30:33.417Z,26.50
2019-03-23T23:33:02.477Z,30.60
2019-03-23T23:35:31.571Z,17.70
2019-03-23T23:38:00.532Z,29.60
2019-03-23T23:40:29.587Z,22.87
2019-03-23T23:42:58.585Z,20.27
2019-03-23T23:45:27.646Z,20.10
2019-03-23T23:47:56.794Z,18.13
2019-03-23T23:50:25.798Z,16.03
2019-03-23T23:52:54.893Z,13.40
2019-03-23T23:55:23.899Z,21.87
2019-03-23T23:57:52.906Z,19.33
